sensor_id;sensor_type;location;lat;lon;timestamp;temperature;humidity
7234;DHT22;3658;47.992;10.158;2022-10-18T00:00:10;21.50;58.40
7234;DHT22;3658;47.992;10.158;2022-10-18T00:02:37;21.40;58.30
7234;DHT22;3658;47.992;10.158;2022-10-18T00:05:04;21.40;58.30
7234;DHT22;3658;47.992;10.158;2022-10-18T00:07:33;21.40;58.30
7234;DHT22;3658;47.992;10.158;2022-10-18T00:10:00;21.40;58.30
7234;DHT22;3658;47.992;10.158;2022-10-18T00:12:27;21.40;58.30
7234;DHT22;3658;47.992;10.158;2022-10-18T00:14:54;21.40;58.30
7234;DHT22;3658;47.992;10.158;2022-10-18T00:17:20;21.40;58.30
7234;DHT22;3658;47.992;10.158;2022-10-18T00:19:47;21.40;58.30
7234;DHT22;3658;47.992;10.158;2022-10-18T00:22:15;21.40;58.30
7234;DHT22;3658;47.992;10.158;2022-10-18T00:24:44;21.40;58.30
7234;DHT22;3658;47.992;10.158;2022-10-18T00:27:11;21.40;58.30
7234;DHT22;3658;47.992;10.158;2022-10-18T00:29:38;21.40;58.30
7234;DHT22;3658;47.992;10.158;2022-10-18T00:32:05;21.40;58.30
7234;DHT22;3658;47.992;10.158;2022-10-18T00:34:32;21.40;58.30
7234;DHT22;3658;47.992;10.158;2022-10-18T00:36:59;21.40;58.20
7234;DHT22;3658;47.992;10.158;2022-10-18T00:39:26;21.40;58.20
7234;DHT22;3658;47.992;10.158;2022-10-18T00:41:54;21.40;58.20
7234;DHT22;3658;47.992;10.158;2022-10-18T00:44:59;21.40;58.20
7234;DHT22;3658;47.992;10.158;2022-10-18T00:47:27;21.40;58.20
7234;DHT22;3658;47.992;10.158;2022-10-18T00:49:57;21.40;58.20
7234;DHT22;3658;47.992;10.158;2022-10-18T00:52:29;21.40;58.20
7234;DHT22;3658;47.992;10.158;2022-10-18T00:54:57;21.40;58.20
7234;DHT22;3658;47.992;10.158;2022-10-18T00:57:25;21.40;58.20
7234;DHT22;3658;47.992;10.158;2022-10-18T00:59:53;21.40;58.20
7234;DHT22;3658;47.992;10.158;2022-10-18T01:02:20;21.40;58.20
7234;DHT22;3658;47.992;10.158;2022-10-18T01:04:47;21.40;58.20
7234;DHT22;3658;47.992;10.158;2022-10-18T01:07:25;21.40;58.20
7234;DHT22;3658;47.992;10.158;2022-10-18T01:09:59;21.40;58.10
7234;DHT22;3658;47.992;10.158;2022-10-18T01:12:38;21.40;58.10
7234;DHT22;3658;47.992;10.158;2022-10-18T01:15:12;21.40;58.10
7234;DHT22;3658;47.992;10.158;2022-10-18T01:17:46;21.40;58.10
7234;DHT22;3658;47.992;10.158;2022-10-18T01:20:29;21.40;58.10
7234;DHT22;3658;47.992;10.158;2022-10-18T01:23:04;21.40;58.20
7234;DHT22;3658;47.992;10.158;2022-10-18T01:25:39;21.40;58.10
7234;DHT22;3658;47.992;10.158;2022-10-18T01:28:19;21.40;58.10
7234;DHT22;3658;47.992;10.158;2022-10-18T01:30:54;21.40;58.10
7234;DHT22;3658;47.992;10.158;2022-10-18T01:33:32;21.40;58.10
7234;DHT22;3658;47.992;10.158;2022-10-18T01:36:06;21.40;58.10
7234;DHT22;3658;47.992;10.158;2022-10-18T01:38:35;21.40;58.20
7234;DHT22;3658;47.992;10.158;2022-10-18T01:41:04;21.40;58.10
7234;DHT22;3658;47.992;10.158;2022-10-18T01:43:33;21.40;58.10
7234;DHT22;3658;47.992;10.158;2022-10-18T01:46:03;21.40;58.10
7234;DHT22;3658;47.992;10.158;2022-10-18T01:48:31;21.40;58.10
7234;DHT22;3658;47.992;10.158;2022-10-18T01:50:58;21.30;58.00
7234;DHT22;3658;47.992;10.158;2022-10-18T01:53:28;21.40;58.00
7234;DHT22;3658;47.992;10.158;2022-10-18T01:56:08;21.40;58.00
7234;DHT22;3658;47.992;10.158;2022-10-18T01:58:43;21.30;58.00
7234;DHT22;3658;47.992;10.158;2022-10-18T02:01:19;21.40;58.00
7234;DHT22;3658;47.992;10.158;2022-10-18T02:03:53;21.30;58.00
7234;DHT22;3658;47.992;10.158;2022-10-18T02:06:26;21.30;58.00
7234;DHT22;3658;47.992;10.158;2022-10-18T02:08:59;21.30;57.90
7234;DHT22;3658;47.992;10.158;2022-10-18T02:11:30;21.30;58.00
7234;DHT22;3658;47.992;10.158;2022-10-18T02:14:03;21.30;57.90
7234;DHT22;3658;47.992;10.158;2022-10-18T02:16:36;21.30;57.90
7234;DHT22;3658;47.992;10.158;2022-10-18T02:19:09;21.30;58.00
7234;DHT22;3658;47.992;10.158;2022-10-18T02:21:38;21.30;57.90
7234;DHT22;3658;47.992;10.158;2022-10-18T02:24:08;21.30;58.00
7234;DHT22;3658;47.992;10.158;2022-10-18T02:26:35;21.30;57.90
7234;DHT22;3658;47.992;10.158;2022-10-18T02:29:02;21.30;58.00
7234;DHT22;3658;47.992;10.158;2022-10-18T02:31:33;21.30;58.00
7234;DHT22;3658;47.992;10.158;2022-10-18T02:34:06;21.30;57.90
7234;DHT22;3658;47.992;10.158;2022-10-18T02:36:39;21.30;57.90
7234;DHT22;3658;47.992;10.158;2022-10-18T02:39:12;21.30;57.90
7234;DHT22;3658;47.992;10.158;2022-10-18T02:41:40;21.30;58.00
7234;DHT22;3658;47.992;10.158;2022-10-18T02:44:08;21.30;57.90
7234;DHT22;3658;47.992;10.158;2022-10-18T02:46:36;21.30;57.90
7234;DHT22;3658;47.992;10.158;2022-10-18T02:49:03;21.30;58.00
7234;DHT22;3658;47.992;10.158;2022-10-18T02:51:30;21.30;57.90
7234;DHT22;3658;47.992;10.158;2022-10-18T02:53:57;21.30;57.90
7234;DHT22;3658;47.992;10.158;2022-10-18T02:56:24;21.30;57.90
7234;DHT22;3658;47.992;10.158;2022-10-18T02:58:51;21.30;57.90
7234;DHT22;3658;47.992;10.158;2022-10-18T03:01:18;21.30;57.90
7234;DHT22;3658;47.992;10.158;2022-10-18T03:03:46;21.30;57.90
7234;DHT22;3658;47.992;10.158;2022-10-18T03:06:13;21.30;57.90
7234;DHT22;3658;47.992;10.158;2022-10-18T03:08:40;21.30;57.90
7234;DHT22;3658;47.992;10.158;2022-10-18T03:11:07;21.30;57.90
7234;DHT22;3658;47.992;10.158;2022-10-18T03:13:34;21.30;57.90
7234;DHT22;3658;47.992;10.158;2022-10-18T03:16:01;21.30;58.50
7234;DHT22;3658;47.992;10.158;2022-10-18T03:18:28;21.30;57.90
7234;DHT22;3658;47.992;10.158;2022-10-18T03:20:57;21.30;57.90
7234;DHT22;3658;47.992;10.158;2022-10-18T03:23:24;21.30;57.90
7234;DHT22;3658;47.992;10.158;2022-10-18T03:25:50;21.30;57.90
7234;DHT22;3658;47.992;10.158;2022-10-18T03:28:17;21.30;57.80
7234;DHT22;3658;47.992;10.158;2022-10-18T03:30:44;21.30;57.90
7234;DHT22;3658;47.992;10.158;2022-10-18T03:33:11;21.30;57.90
7234;DHT22;3658;47.992;10.158;2022-10-18T03:35:38;21.30;57.90
7234;DHT22;3658;47.992;10.158;2022-10-18T03:38:06;21.30;57.90
7234;DHT22;3658;47.992;10.158;2022-10-18T03:40:33;21.30;57.90
7234;DHT22;3658;47.992;10.158;2022-10-18T03:43:00;21.30;57.90
7234;DHT22;3658;47.992;10.158;2022-10-18T03:45:27;21.30;57.90
7234;DHT22;3658;47.992;10.158;2022-10-18T03:47:54;21.20;57.80
7234;DHT22;3658;47.992;10.158;2022-10-18T03:50:21;21.20;57.80
7234;DHT22;3658;47.992;10.158;2022-10-18T03:52:48;21.30;57.90
7234;DHT22;3658;47.992;10.158;2022-10-18T03:55:16;21.30;57.90
7234;DHT22;3658;47.992;10.158;2022-10-18T03:57:43;21.30;57.90
7234;DHT22;3658;47.992;10.158;2022-10-18T04:00:11;21.30;57.90
7234;DHT22;3658;47.992;10.158;2022-10-18T04:02:38;21.30;57.90
7234;DHT22;3658;47.992;10.158;2022-10-18T04:05:06;21.20;57.80
7234;DHT22;3658;47.992;10.158;2022-10-18T04:07:33;21.20;57.80
7234;DHT22;3658;47.992;10.158;2022-10-18T04:10:00;21.20;57.80
7234;DHT22;3658;47.992;10.158;2022-10-18T04:12:29;21.20;57.80
7234;DHT22;3658;47.992;10.158;2022-10-18T04:14:55;21.20;57.80
7234;DHT22;3658;47.992;10.158;2022-10-18T04:17:22;21.20;57.80
7234;DHT22;3658;47.992;10.158;2022-10-18T04:19:49;21.20;57.80
7234;DHT22;3658;47.992;10.158;2022-10-18T04:22:16;21.20;57.80
7234;DHT22;3658;47.992;10.158;2022-10-18T04:24:43;21.20;57.80
7234;DHT22;3658;47.992;10.158;2022-10-18T04:27:10;21.20;57.80
7234;DHT22;3658;47.992;10.158;2022-10-18T04:29:38;21.20;57.80
7234;DHT22;3658;47.992;10.158;2022-10-18T04:32:05;21.20;57.80
7234;DHT22;3658;47.992;10.158;2022-10-18T04:34:32;21.20;57.80
7234;DHT22;3658;47.992;10.158;2022-10-18T04:36:59;21.20;57.80
7234;DHT22;3658;47.992;10.158;2022-10-18T04:39:26;21.20;57.80
7234;DHT22;3658;47.992;10.158;2022-10-18T04:41:53;21.20;57.80
7234;DHT22;3658;47.992;10.158;2022-10-18T04:44:20;21.20;57.80
7234;DHT22;3658;47.992;10.158;2022-10-18T04:46:48;21.20;57.80
7234;DHT22;3658;47.992;10.158;2022-10-18T04:49:15;21.20;57.80
7234;DHT22;3658;47.992;10.158;2022-10-18T04:51:42;21.20;57.80
7234;DHT22;3658;47.992;10.158;2022-10-18T04:54:09;21.20;57.80
7234;DHT22;3658;47.992;10.158;2022-10-18T04:56:36;21.20;57.80
7234;DHT22;3658;47.992;10.158;2022-10-18T04:59:03;21.20;57.80
7234;DHT22;3658;47.992;10.158;2022-10-18T05:01:30;21.20;57.80
7234;DHT22;3658;47.992;10.158;2022-10-18T05:03:58;21.20;57.80
7234;DHT22;3658;47.992;10.158;2022-10-18T05:06:25;21.20;58.00
7234;DHT22;3658;47.992;10.158;2022-10-18T05:08:52;21.20;58.50
7234;DHT22;3658;47.992;10.158;2022-10-18T05:11:19;21.20;58.70
7234;DHT22;3658;47.992;10.158;2022-10-18T05:13:46;21.30;59.20
7234;DHT22;3658;47.992;10.158;2022-10-18T05:16:13;21.30;59.30
7234;DHT22;3658;47.992;10.158;2022-10-18T05:18:40;21.30;59.60
7234;DHT22;3658;47.992;10.158;2022-10-18T05:21:10;21.30;59.50
7234;DHT22;3658;47.992;10.158;2022-10-18T05:23:37;21.30;59.60
7234;DHT22;3658;47.992;10.158;2022-10-18T05:26:05;21.30;59.60
7234;DHT22;3658;47.992;10.158;2022-10-18T05:28:33;21.30;59.60
7234;DHT22;3658;47.992;10.158;2022-10-18T05:31:03;21.30;59.70
7234;DHT22;3658;47.992;10.158;2022-10-18T05:33:31;21.30;59.70
7234;DHT22;3658;47.992;10.158;2022-10-18T05:35:58;21.30;59.80
7234;DHT22;3658;47.992;10.158;2022-10-18T05:38:27;21.30;59.80
7234;DHT22;3658;47.992;10.158;2022-10-18T05:40:55;21.30;59.70
7234;DHT22;3658;47.992;10.158;2022-10-18T05:43:22;21.30;59.70
7234;DHT22;3658;47.992;10.158;2022-10-18T05:45:49;21.30;59.80
7234;DHT22;3658;47.992;10.158;2022-10-18T05:48:17;21.30;59.80
7234;DHT22;3658;47.992;10.158;2022-10-18T05:50:44;21.30;59.80
7234;DHT22;3658;47.992;10.158;2022-10-18T05:53:11;21.30;59.90
7234;DHT22;3658;47.992;10.158;2022-10-18T05:55:39;21.30;59.80
7234;DHT22;3658;47.992;10.158;2022-10-18T05:58:06;21.30;59.80
7234;DHT22;3658;47.992;10.158;2022-10-18T06:00:33;21.30;59.80
7234;DHT22;3658;47.992;10.158;2022-10-18T06:03:00;21.30;59.80
7234;DHT22;3658;47.992;10.158;2022-10-18T06:05:27;21.30;59.80
7234;DHT22;3658;47.992;10.158;2022-10-18T06:07:55;21.30;59.70
7234;DHT22;3658;47.992;10.158;2022-10-18T06:10:29;21.30;60.00
7234;DHT22;3658;47.992;10.158;2022-10-18T06:12:57;21.30;60.00
7234;DHT22;3658;47.992;10.158;2022-10-18T06:15:24;21.30;60.10
7234;DHT22;3658;47.992;10.158;2022-10-18T06:17:51;21.30;60.00
7234;DHT22;3658;47.992;10.158;2022-10-18T06:20:19;21.30;59.90
7234;DHT22;3658;47.992;10.158;2022-10-18T06:22:51;21.30;59.80
7234;DHT22;3658;47.992;10.158;2022-10-18T06:25:18;21.30;59.80
7234;DHT22;3658;47.992;10.158;2022-10-18T06:27:45;21.30;59.70
7234;DHT22;3658;47.992;10.158;2022-10-18T06:30:14;21.30;59.60
7234;DHT22;3658;47.992;10.158;2022-10-18T06:32:41;21.30;59.60
7234;DHT22;3658;47.992;10.158;2022-10-18T06:35:08;21.30;59.50
7234;DHT22;3658;47.992;10.158;2022-10-18T06:37:35;21.30;59.80
7234;DHT22;3658;47.992;10.158;2022-10-18T06:40:03;21.20;59.40
7234;DHT22;3658;47.992;10.158;2022-10-18T06:42:30;21.20;59.30
7234;DHT22;3658;47.992;10.158;2022-10-18T06:44:57;21.30;59.40
7234;DHT22;3658;47.992;10.158;2022-10-18T06:47:26;21.20;59.30
7234;DHT22;3658;47.992;10.158;2022-10-18T06:49:53;21.30;59.30
7234;DHT22;3658;47.992;10.158;2022-10-18T06:52:20;21.30;59.30
7234;DHT22;3658;47.992;10.158;2022-10-18T06:54:50;21.20;59.20
7234;DHT22;3658;47.992;10.158;2022-10-18T06:57:17;21.30;59.30
7234;DHT22;3658;47.992;10.158;2022-10-18T06:59:45;21.20;59.10
7234;DHT22;3658;47.992;10.158;2022-10-18T07:02:14;21.20;59.10
7234;DHT22;3658;47.992;10.158;2022-10-18T07:04:43;21.20;59.10
7234;DHT22;3658;47.992;10.158;2022-10-18T07:07:13;21.20;59.00
7234;DHT22;3658;47.992;10.158;2022-10-18T07:09:40;21.20;59.00
7234;DHT22;3658;47.992;10.158;2022-10-18T07:12:07;21.20;59.00
7234;DHT22;3658;47.992;10.158;2022-10-18T07:14:36;21.20;59.00
7234;DHT22;3658;47.992;10.158;2022-10-18T07:17:03;21.20;58.90
7234;DHT22;3658;47.992;10.158;2022-10-18T07:19:30;21.20;58.90
7234;DHT22;3658;47.992;10.158;2022-10-18T07:21:58;21.20;58.90
7234;DHT22;3658;47.992;10.158;2022-10-18T07:24:25;21.20;58.90
7234;DHT22;3658;47.992;10.158;2022-10-18T07:26:52;21.20;58.90
7234;DHT22;3658;47.992;10.158;2022-10-18T07:29:19;21.20;58.90
7234;DHT22;3658;47.992;10.158;2022-10-18T07:31:46;21.20;58.90
7234;DHT22;3658;47.992;10.158;2022-10-18T07:34:13;21.20;58.90
7234;DHT22;3658;47.992;10.158;2022-10-18T07:36:40;21.20;58.90
7234;DHT22;3658;47.992;10.158;2022-10-18T07:39:09;21.20;58.80
7234;DHT22;3658;47.992;10.158;2022-10-18T07:41:36;21.20;58.80
7234;DHT22;3658;47.992;10.158;2022-10-18T07:44:04;21.20;58.80
7234;DHT22;3658;47.992;10.158;2022-10-18T07:46:31;21.20;58.80
7234;DHT22;3658;47.992;10.158;2022-10-18T07:48:58;21.20;58.80
7234;DHT22;3658;47.992;10.158;2022-10-18T07:51:25;21.20;58.80
7234;DHT22;3658;47.992;10.158;2022-10-18T07:53:53;21.20;58.80
7234;DHT22;3658;47.992;10.158;2022-10-18T07:56:21;21.20;58.70
7234;DHT22;3658;47.992;10.158;2022-10-18T07:58:49;21.20;58.70
7234;DHT22;3658;47.992;10.158;2022-10-18T08:01:17;21.20;58.70
7234;DHT22;3658;47.992;10.158;2022-10-18T08:03:44;21.20;58.70
7234;DHT22;3658;47.992;10.158;2022-10-18T08:06:13;21.20;58.70
7234;DHT22;3658;47.992;10.158;2022-10-18T08:08:41;21.20;58.70
7234;DHT22;3658;47.992;10.158;2022-10-18T08:11:10;21.20;58.70
7234;DHT22;3658;47.992;10.158;2022-10-18T08:13:41;21.20;58.80
7234;DHT22;3658;47.992;10.158;2022-10-18T08:16:09;21.20;58.70
7234;DHT22;3658;47.992;10.158;2022-10-18T08:18:37;21.20;58.70
7234;DHT22;3658;47.992;10.158;2022-10-18T08:21:06;21.20;58.70
7234;DHT22;3658;47.992;10.158;2022-10-18T08:23:33;21.20;58.70
7234;DHT22;3658;47.992;10.158;2022-10-18T08:26:00;21.20;58.70
7234;DHT22;3658;47.992;10.158;2022-10-18T08:28:28;21.20;58.70
7234;DHT22;3658;47.992;10.158;2022-10-18T08:30:56;21.20;58.70
7234;DHT22;3658;47.992;10.158;2022-10-18T08:33:23;21.20;58.60
7234;DHT22;3658;47.992;10.158;2022-10-18T08:35:57;21.20;58.70
7234;DHT22;3658;47.992;10.158;2022-10-18T08:38:24;21.20;58.60
7234;DHT22;3658;47.992;10.158;2022-10-18T08:40:51;21.20;58.60
7234;DHT22;3658;47.992;10.158;2022-10-18T08:43:27;21.20;58.70
7234;DHT22;3658;47.992;10.158;2022-10-18T08:45:58;21.20;58.70
7234;DHT22;3658;47.992;10.158;2022-10-18T08:48:31;21.20;58.70
7234;DHT22;3658;47.992;10.158;2022-10-18T08:51:00;21.20;58.70
7234;DHT22;3658;47.992;10.158;2022-10-18T08:53:33;21.20;58.70
7234;DHT22;3658;47.992;10.158;2022-10-18T08:56:06;21.20;58.70
7234;DHT22;3658;47.992;10.158;2022-10-18T08:58:41;21.20;58.70
7234;DHT22;3658;47.992;10.158;2022-10-18T09:01:22;21.20;58.70
7234;DHT22;3658;47.992;10.158;2022-10-18T09:04:05;21.20;58.60
7234;DHT22;3658;47.992;10.158;2022-10-18T09:06:42;21.20;58.60
7234;DHT22;3658;47.992;10.158;2022-10-18T09:09:25;21.20;58.60
7234;DHT22;3658;47.992;10.158;2022-10-18T09:12:02;21.20;58.60
7234;DHT22;3658;47.992;10.158;2022-10-18T09:17:45;21.20;58.60
7234;DHT22;3658;47.992;10.158;2022-10-18T09:20:21;21.20;58.70
7234;DHT22;3658;47.992;10.158;2022-10-18T09:22:54;21.20;58.60
7234;DHT22;3658;47.992;10.158;2022-10-18T09:25:23;21.20;58.60
7234;DHT22;3658;47.992;10.158;2022-10-18T09:27:55;21.20;58.60
7234;DHT22;3658;47.992;10.158;2022-10-18T09:30:40;21.20;58.60
7234;DHT22;3658;47.992;10.158;2022-10-18T09:33:23;21.20;58.60
7234;DHT22;3658;47.992;10.158;2022-10-18T09:35:54;21.20;58.60
7234;DHT22;3658;47.992;10.158;2022-10-18T09:38:25;21.20;58.60
7234;DHT22;3658;47.992;10.158;2022-10-18T09:40:59;21.20;58.60
7234;DHT22;3658;47.992;10.158;2022-10-18T09:43:37;21.20;58.60
7234;DHT22;3658;47.992;10.158;2022-10-18T09:46:06;21.20;58.60
7234;DHT22;3658;47.992;10.158;2022-10-18T09:48:40;21.20;58.60
7234;DHT22;3658;47.992;10.158;2022-10-18T09:51:10;21.20;58.50
7234;DHT22;3658;47.992;10.158;2022-10-18T09:53:44;21.20;58.60
7234;DHT22;3658;47.992;10.158;2022-10-18T09:56:15;21.20;58.50
7234;DHT22;3658;47.992;10.158;2022-10-18T09:58:44;21.20;58.50
7234;DHT22;3658;47.992;10.158;2022-10-18T10:01:14;21.20;58.60
7234;DHT22;3658;47.992;10.158;2022-10-18T10:03:43;21.20;58.50
7234;DHT22;3658;47.992;10.158;2022-10-18T10:06:24;21.20;58.60
7234;DHT22;3658;47.992;10.158;2022-10-18T10:08:59;21.20;58.60
7234;DHT22;3658;47.992;10.158;2022-10-18T10:11:28;21.20;58.60
7234;DHT22;3658;47.992;10.158;2022-10-18T10:13:56;21.20;58.60
7234;DHT22;3658;47.992;10.158;2022-10-18T10:16:25;21.20;58.60
7234;DHT22;3658;47.992;10.158;2022-10-18T10:18:55;21.20;58.60
7234;DHT22;3658;47.992;10.158;2022-10-18T10:21:22;21.20;58.70
7234;DHT22;3658;47.992;10.158;2022-10-18T10:23:52;21.20;58.70
7234;DHT22;3658;47.992;10.158;2022-10-18T10:26:21;21.20;58.70
7234;DHT22;3658;47.992;10.158;2022-10-18T10:28:49;21.20;58.80
7234;DHT22;3658;47.992;10.158;2022-10-18T10:31:20;21.20;58.70
7234;DHT22;3658;47.992;10.158;2022-10-18T10:34:00;21.20;58.70
7234;DHT22;3658;47.992;10.158;2022-10-18T10:36:29;21.20;58.70
7234;DHT22;3658;47.992;10.158;2022-10-18T10:39:04;21.20;58.70
7234;DHT22;3658;47.992;10.158;2022-10-18T10:41:32;21.20;58.70
7234;DHT22;3658;47.992;10.158;2022-10-18T10:44:02;21.20;58.80
7234;DHT22;3658;47.992;10.158;2022-10-18T10:46:33;21.20;58.80
7234;DHT22;3658;47.992;10.158;2022-10-18T10:49:03;21.20;58.80
7234;DHT22;3658;47.992;10.158;2022-10-18T10:51:32;21.20;58.80
7234;DHT22;3658;47.992;10.158;2022-10-18T10:54:03;21.20;58.80
7234;DHT22;3658;47.992;10.158;2022-10-18T10:56:35;21.20;58.80
7234;DHT22;3658;47.992;10.158;2022-10-18T10:59:09;21.20;58.80
7234;DHT22;3658;47.992;10.158;2022-10-18T11:01:38;21.20;58.80
7234;DHT22;3658;47.992;10.158;2022-10-18T11:04:23;21.20;58.80
7234;DHT22;3658;47.992;10.158;2022-10-18T11:07:01;21.20;58.80
7234;DHT22;3658;47.992;10.158;2022-10-18T11:09:43;21.20;58.80
7234;DHT22;3658;47.992;10.158;2022-10-18T11:12:19;21.20;58.80
7234;DHT22;3658;47.992;10.158;2022-10-18T11:14:51;21.20;58.80
7234;DHT22;3658;47.992;10.158;2022-10-18T11:17:24;21.20;58.90
7234;DHT22;3658;47.992;10.158;2022-10-18T11:20:10;21.20;58.90
7234;DHT22;3658;47.992;10.158;2022-10-18T11:22:42;21.20;58.90
7234;DHT22;3658;47.992;10.158;2022-10-18T11:25:14;21.20;58.90
7234;DHT22;3658;47.992;10.158;2022-10-18T11:27:45;21.20;58.90
7234;DHT22;3658;47.992;10.158;2022-10-18T11:30:40;21.20;58.90
7234;DHT22;3658;47.992;10.158;2022-10-18T11:33:19;21.20;58.90
7234;DHT22;3658;47.992;10.158;2022-10-18T11:35:53;21.20;58.90
7234;DHT22;3658;47.992;10.158;2022-10-18T11:38:30;21.20;58.80
7234;DHT22;3658;47.992;10.158;2022-10-18T11:41:18;21.20;58.90
7234;DHT22;3658;47.992;10.158;2022-10-18T11:43:52;21.20;58.90
7234;DHT22;3658;47.992;10.158;2022-10-18T11:46:28;21.20;58.90
7234;DHT22;3658;47.992;10.158;2022-10-18T11:49:18;21.20;58.90
7234;DHT22;3658;47.992;10.158;2022-10-18T11:51:58;21.20;58.90
7234;DHT22;3658;47.992;10.158;2022-10-18T11:54:51;21.20;58.90
7234;DHT22;3658;47.992;10.158;2022-10-18T11:57:39;21.20;58.90
7234;DHT22;3658;47.992;10.158;2022-10-18T12:00:20;21.20;58.90
7234;DHT22;3658;47.992;10.158;2022-10-18T12:03:01;21.20;58.90
7234;DHT22;3658;47.992;10.158;2022-10-18T12:05:31;21.20;58.90
7234;DHT22;3658;47.992;10.158;2022-10-18T12:08:06;21.20;58.90
7234;DHT22;3658;47.992;10.158;2022-10-18T12:10:34;21.20;58.80
7234;DHT22;3658;47.992;10.158;2022-10-18T12:13:04;21.20;58.90
7234;DHT22;3658;47.992;10.158;2022-10-18T12:15:35;21.20;58.80
7234;DHT22;3658;47.992;10.158;2022-10-18T12:18:06;21.20;58.80
7234;DHT22;3658;47.992;10.158;2022-10-18T12:20:40;21.20;58.80
7234;DHT22;3658;47.992;10.158;2022-10-18T12:23:12;21.20;58.80
7234;DHT22;3658;47.992;10.158;2022-10-18T12:25:44;21.20;58.80
7234;DHT22;3658;47.992;10.158;2022-10-18T12:28:29;21.20;58.80
7234;DHT22;3658;47.992;10.158;2022-10-18T12:31:07;21.20;58.80
7234;DHT22;3658;47.992;10.158;2022-10-18T12:33:44;21.20;58.80
7234;DHT22;3658;47.992;10.158;2022-10-18T12:36:23;21.20;58.80
7234;DHT22;3658;47.992;10.158;2022-10-18T12:38:58;21.20;58.80
7234;DHT22;3658;47.992;10.158;2022-10-18T12:41:28;21.20;58.80
7234;DHT22;3658;47.992;10.158;2022-10-18T12:44:00;21.20;58.80
7234;DHT22;3658;47.992;10.158;2022-10-18T12:46:43;21.20;58.80
7234;DHT22;3658;47.992;10.158;2022-10-18T12:49:12;21.20;58.80
7234;DHT22;3658;47.992;10.158;2022-10-18T12:51:49;21.20;58.80
7234;DHT22;3658;47.992;10.158;2022-10-18T12:54:22;21.20;58.70
7234;DHT22;3658;47.992;10.158;2022-10-18T12:56:51;21.20;58.70
7234;DHT22;3658;47.992;10.158;2022-10-18T12:59:48;21.20;58.80
7234;DHT22;3658;47.992;10.158;2022-10-18T13:02:29;21.20;58.70
7234;DHT22;3658;47.992;10.158;2022-10-18T13:04:57;21.20;58.80
7234;DHT22;3658;47.992;10.158;2022-10-18T13:07:37;21.20;58.70
7234;DHT22;3658;47.992;10.158;2022-10-18T13:10:39;21.20;58.70
7234;DHT22;3658;47.992;10.158;2022-10-18T13:13:32;21.20;58.70
7234;DHT22;3658;47.992;10.158;2022-10-18T13:16:19;21.20;58.80
7234;DHT22;3658;47.992;10.158;2022-10-18T13:18:52;21.20;58.70
7234;DHT22;3658;47.992;10.158;2022-10-18T13:21:26;21.20;59.30
7234;DHT22;3658;47.992;10.158;2022-10-18T13:24:08;21.20;58.70
7234;DHT22;3658;47.992;10.158;2022-10-18T13:26:48;21.20;58.80
7234;DHT22;3658;47.992;10.158;2022-10-18T13:29:33;21.20;58.80
7234;DHT22;3658;47.992;10.158;2022-10-18T13:32:16;21.20;58.80
7234;DHT22;3658;47.992;10.158;2022-10-18T13:34:48;21.20;58.80
7234;DHT22;3658;47.992;10.158;2022-10-18T13:37:21;21.20;58.80
7234;DHT22;3658;47.992;10.158;2022-10-18T13:39:51;21.20;58.80
7234;DHT22;3658;47.992;10.158;2022-10-18T13:42:39;21.20;58.80
7234;DHT22;3658;47.992;10.158;2022-10-18T13:45:51;21.20;58.80
7234;DHT22;3658;47.992;10.158;2022-10-18T13:48:44;21.20;58.80
7234;DHT22;3658;47.992;10.158;2022-10-18T13:51:26;21.20;58.80
7234;DHT22;3658;47.992;10.158;2022-10-18T13:54:02;21.20;58.80
7234;DHT22;3658;47.992;10.158;2022-10-18T13:56:50;21.20;58.80
7234;DHT22;3658;47.992;10.158;2022-10-18T13:59:31;21.20;58.80
7234;DHT22;3658;47.992;10.158;2022-10-18T14:02:30;21.20;58.80
7234;DHT22;3658;47.992;10.158;2022-10-18T14:05:16;21.10;58.80
7234;DHT22;3658;47.992;10.158;2022-10-18T14:07:45;21.20;58.80
7234;DHT22;3658;47.992;10.158;2022-10-18T14:10:21;21.20;58.80
7234;DHT22;3658;47.992;10.158;2022-10-18T14:12:52;21.20;58.80
7234;DHT22;3658;47.992;10.158;2022-10-18T14:15:25;21.20;58.80
7234;DHT22;3658;47.992;10.158;2022-10-18T14:17:55;21.20;58.80
7234;DHT22;3658;47.992;10.158;2022-10-18T14:20:26;21.10;58.70
7234;DHT22;3658;47.992;10.158;2022-10-18T14:23:00;21.20;58.80
7234;DHT22;3658;47.992;10.158;2022-10-18T14:25:30;21.20;58.80
7234;DHT22;3658;47.992;10.158;2022-10-18T14:28:05;21.10;58.80
7234;DHT22;3658;47.992;10.158;2022-10-18T14:30:34;21.20;58.80
7234;DHT22;3658;47.992;10.158;2022-10-18T14:33:02;21.20;58.80
7234;DHT22;3658;47.992;10.158;2022-10-18T14:35:30;21.20;58.80
7234;DHT22;3658;47.992;10.158;2022-10-18T14:38:00;21.10;58.70
7234;DHT22;3658;47.992;10.158;2022-10-18T14:40:36;21.20;58.80
7234;DHT22;3658;47.992;10.158;2022-10-18T14:43:08;21.10;58.80
7234;DHT22;3658;47.992;10.158;2022-10-18T14:45:37;21.10;58.80
7234;DHT22;3658;47.992;10.158;2022-10-18T14:48:06;21.10;58.80
7234;DHT22;3658;47.992;10.158;2022-10-18T14:50:34;21.10;58.80
7234;DHT22;3658;47.992;10.158;2022-10-18T14:53:05;21.10;58.80
7234;DHT22;3658;47.992;10.158;2022-10-18T14:55:32;21.10;59.40
7234;DHT22;3658;47.992;10.158;2022-10-18T14:58:00;21.20;58.80
7234;DHT22;3658;47.992;10.158;2022-10-18T15:00:33;21.10;58.80
7234;DHT22;3658;47.992;10.158;2022-10-18T15:03:03;21.10;59.40
7234;DHT22;3658;47.992;10.158;2022-10-18T15:05:31;21.10;58.80
7234;DHT22;3658;47.992;10.158;2022-10-18T15:07:59;21.10;58.80
7234;DHT22;3658;47.992;10.158;2022-10-18T15:10:29;21.10;59.40
7234;DHT22;3658;47.992;10.158;2022-10-18T15:12:57;21.10;58.80
7234;DHT22;3658;47.992;10.158;2022-10-18T15:15:28;21.10;58.80
7234;DHT22;3658;47.992;10.158;2022-10-18T15:17:56;21.10;58.80
7234;DHT22;3658;47.992;10.158;2022-10-18T15:20:28;21.10;58.80
7234;DHT22;3658;47.992;10.158;2022-10-18T15:23:18;21.10;58.80
7234;DHT22;3658;47.992;10.158;2022-10-18T15:25:48;21.10;58.80
7234;DHT22;3658;47.992;10.158;2022-10-18T15:28:23;21.10;58.80
7234;DHT22;3658;47.992;10.158;2022-10-18T15:30:52;21.10;58.80
7234;DHT22;3658;47.992;10.158;2022-10-18T15:33:23;21.10;58.80
7234;DHT22;3658;47.992;10.158;2022-10-18T15:35:52;21.10;58.80
7234;DHT22;3658;47.992;10.158;2022-10-18T15:38:25;21.10;58.80
7234;DHT22;3658;47.992;10.158;2022-10-18T15:40:54;21.10;58.80
7234;DHT22;3658;47.992;10.158;2022-10-18T15:43:34;21.10;58.80
7234;DHT22;3658;47.992;10.158;2022-10-18T15:46:03;21.10;58.90
7234;DHT22;3658;47.992;10.158;2022-10-18T15:48:33;21.10;58.80
7234;DHT22;3658;47.992;10.158;2022-10-18T15:51:01;21.10;58.80
7234;DHT22;3658;47.992;10.158;2022-10-18T15:53:50;21.10;58.80
7234;DHT22;3658;47.992;10.158;2022-10-18T15:56:30;21.10;58.80
7234;DHT22;3658;47.992;10.158;2022-10-18T15:58:58;21.10;58.80
7234;DHT22;3658;47.992;10.158;2022-10-18T16:01:32;21.10;58.80
7234;DHT22;3658;47.992;10.158;2022-10-18T16:04:04;21.10;58.80
7234;DHT22;3658;47.992;10.158;2022-10-18T16:06:32;21.10;58.90
7234;DHT22;3658;47.992;10.158;2022-10-18T16:09:03;21.10;58.80
7234;DHT22;3658;47.992;10.158;2022-10-18T16:11:31;21.10;58.80
7234;DHT22;3658;47.992;10.158;2022-10-18T16:13:58;21.10;58.80